Martin, South Dakota
Current Conditions -  °F | °C
As of 8:52 AM on Tuesday 21 Oct 2014 (Local Time) from KIEN Reporting Station
Clear Clear  
Wind Chill: 59°   Ceiling: Unl
Heat Index: 59°   Visibility: 10mi
Dew Point: 45°   Wind: 13mph
Humidity: 60%   Direction: 200°SSW
Pressure: 29.9"   Gusts: NA
Location:  43.17°N, 101.73°W
Report Text: KIEN 211452Z AUTO 20011KT 10SM CLR 15/07 A2990 RMK AO2 PK WND 18027/1405 SLP106 T01500072 58001 PWINO $
Loading
Personal Weather Stations






























Interactive Weather Map
Tropical Storm Tracking
New forecast layout! Learn more

10-Day Weather Forecast

Advertisements
Track Severe Weather on mobile